sensor_id;sensor_type;location;lat;lon;timestamp;P1;durP1;ratioP1;P2;durP2;ratioP2
45970;SDS011;31681;48.982;8.394;2023-04-24T00:02:22;0.70;;;0.70;;
45970;SDS011;31681;48.982;8.394;2023-04-24T00:04:47;3.45;;;0.70;;
45970;SDS011;31681;48.982;8.394;2023-04-24T00:07:14;1.10;;;0.60;;
45970;SDS011;31681;48.982;8.394;2023-04-24T00:09:41;0.60;;;0.60;;
45970;SDS011;31681;48.982;8.394;2023-04-24T00:12:07;1.27;;;1.00;;
45970;SDS011;31681;48.982;8.394;2023-04-24T00:14:32;2.67;;;0.95;;
45970;SDS011;31681;48.982;8.394;2023-04-24T00:16:58;1.10;;;0.73;;
45970;SDS011;31681;48.982;8.394;2023-04-24T00:19:23;1.55;;;0.70;;
45970;SDS011;31681;48.982;8.394;2023-04-24T00:21:48;3.95;;;0.80;;
45970;SDS011;31681;48.982;8.394;2023-04-24T00:24:17;1.65;;;0.88;;
45970;SDS011;31681;48.982;8.394;2023-04-24T00:26:42;0.88;;;0.85;;
45970;SDS011;31681;48.982;8.394;2023-04-24T00:29:07;0.77;;;0.70;;
45970;SDS011;31681;48.982;8.394;2023-04-24T00:31:33;1.00;;;0.88;;
45970;SDS011;31681;48.982;8.394;2023-04-24T00:34:01;1.52;;;0.70;;
45970;SDS011;31681;48.982;8.394;2023-04-24T00:36:27;2.92;;;0.80;;
45970;SDS011;31681;48.982;8.394;2023-04-24T00:38:53;1.73;;;1.10;;
45970;SDS011;31681;48.982;8.394;2023-04-24T00:41:18;1.58;;;1.00;;
45970;SDS011;31681;48.982;8.394;2023-04-24T00:43:44;1.33;;;0.93;;
45970;SDS011;31681;48.982;8.394;2023-04-24T00:46:10;1.67;;;0.70;;
45970;SDS011;31681;48.982;8.394;2023-04-24T00:48:37;3.25;;;0.90;;
45970;SDS011;31681;48.982;8.394;2023-04-24T00:51:03;0.93;;;0.50;;
45970;SDS011;31681;48.982;8.394;2023-04-24T00:53:29;1.02;;;0.68;;
45970;SDS011;31681;48.982;8.394;2023-04-24T00:55:54;1.17;;;0.90;;
45970;SDS011;31681;48.982;8.394;2023-04-24T00:58:20;3.17;;;0.68;;
45970;SDS011;31681;48.982;8.394;2023-04-24T01:00:46;2.20;;;0.80;;
45970;SDS011;31681;48.982;8.394;2023-04-24T01:03:12;4.07;;;1.20;;
45970;SDS011;31681;48.982;8.394;2023-04-24T01:05:38;1.25;;;0.85;;
45970;SDS011;31681;48.982;8.394;2023-04-24T01:08:04;0.75;;;0.75;;
45970;SDS011;31681;48.982;8.394;2023-04-24T01:10:30;2.88;;;0.90;;
45970;SDS011;31681;48.982;8.394;2023-04-24T01:12:56;2.78;;;1.00;;
45970;SDS011;31681;48.982;8.394;2023-04-24T01:15:22;1.63;;;0.70;;
45970;SDS011;31681;48.982;8.394;2023-04-24T01:17:48;0.93;;;0.70;;
45970;SDS011;31681;48.982;8.394;2023-04-24T01:20:13;1.10;;;0.98;;
45970;SDS011;31681;48.982;8.394;2023-04-24T01:22:40;1.00;;;0.88;;
45970;SDS011;31681;48.982;8.394;2023-04-24T01:25:06;1.40;;;0.70;;
45970;SDS011;31681;48.982;8.394;2023-04-24T01:27:32;0.77;;;0.75;;
45970;SDS011;31681;48.982;8.394;2023-04-24T01:29:57;0.73;;;0.70;;
45970;SDS011;31681;48.982;8.394;2023-04-24T01:32:22;1.30;;;0.70;;
45970;SDS011;31681;48.982;8.394;2023-04-24T01:34:48;2.10;;;0.77;;
45970;SDS011;31681;48.982;8.394;2023-04-24T01:37:14;1.02;;;0.80;;
45970;SDS011;31681;48.982;8.394;2023-04-24T01:39:40;0.88;;;0.82;;
45970;SDS011;31681;48.982;8.394;2023-04-24T01:42:06;3.10;;;0.90;;
45970;SDS011;31681;48.982;8.394;2023-04-24T01:44:32;1.75;;;0.70;;
45970;SDS011;31681;48.982;8.394;2023-04-24T01:46:58;1.30;;;0.98;;
45970;SDS011;31681;48.982;8.394;2023-04-24T01:49:25;1.35;;;0.80;;
45970;SDS011;31681;48.982;8.394;2023-04-24T01:51:51;9.43;;;1.52;;
45970;SDS011;31681;48.982;8.394;2023-04-24T01:54:16;1.85;;;0.90;;
45970;SDS011;31681;48.982;8.394;2023-04-24T01:56:42;2.05;;;1.20;;
45970;SDS011;31681;48.982;8.394;2023-04-24T01:59:09;1.45;;;0.80;;
45970;SDS011;31681;48.982;8.394;2023-04-24T02:01:35;2.63;;;0.90;;
45970;SDS011;31681;48.982;8.394;2023-04-24T02:04:07;2.38;;;0.77;;
45970;SDS011;31681;48.982;8.394;2023-04-24T02:06:34;1.15;;;1.00;;
45970;SDS011;31681;48.982;8.394;2023-04-24T02:08:59;3.33;;;0.98;;
45970;SDS011;31681;48.982;8.394;2023-04-24T02:11:25;2.88;;;0.90;;
45970;SDS011;31681;48.982;8.394;2023-04-24T02:13:51;1.05;;;0.70;;
45970;SDS011;31681;48.982;8.394;2023-04-24T02:16:17;1.65;;;0.80;;
45970;SDS011;31681;48.982;8.394;2023-04-24T02:18:43;1.77;;;0.90;;
45970;SDS011;31681;48.982;8.394;2023-04-24T02:21:08;2.63;;;1.00;;
45970;SDS011;31681;48.982;8.394;2023-04-24T02:23:34;2.60;;;0.90;;
45970;SDS011;31681;48.982;8.394;2023-04-24T02:25:59;2.42;;;1.00;;
45970;SDS011;31681;48.982;8.394;2023-04-24T02:28:25;2.17;;;0.80;;
45970;SDS011;31681;48.982;8.394;2023-04-24T02:30:50;2.80;;;0.88;;
45970;SDS011;31681;48.982;8.394;2023-04-24T02:33:16;0.80;;;0.73;;
45970;SDS011;31681;48.982;8.394;2023-04-24T02:35:41;4.03;;;1.08;;
45970;SDS011;31681;48.982;8.394;2023-04-24T02:38:06;2.53;;;1.10;;
45970;SDS011;31681;48.982;8.394;2023-04-24T02:40:32;0.80;;;0.80;;
45970;SDS011;31681;48.982;8.394;2023-04-24T02:42:57;2.28;;;0.90;;
45970;SDS011;31681;48.982;8.394;2023-04-24T02:45:23;1.60;;;0.70;;
45970;SDS011;31681;48.982;8.394;2023-04-24T02:47:48;1.70;;;0.70;;
45970;SDS011;31681;48.982;8.394;2023-04-24T02:50:13;1.45;;;0.80;;
45970;SDS011;31681;48.982;8.394;2023-04-24T02:52:39;1.25;;;0.65;;
45970;SDS011;31681;48.982;8.394;2023-04-24T02:55:04;3.63;;;0.77;;
45970;SDS011;31681;48.982;8.394;2023-04-24T02:57:30;1.65;;;0.73;;
45970;SDS011;31681;48.982;8.394;2023-04-24T02:59:55;1.30;;;1.05;;
45970;SDS011;31681;48.982;8.394;2023-04-24T03:02:21;1.73;;;1.10;;
45970;SDS011;31681;48.982;8.394;2023-04-24T03:04:46;0.77;;;0.73;;
45970;SDS011;31681;48.982;8.394;2023-04-24T03:07:13;1.77;;;0.77;;
45970;SDS011;31681;48.982;8.394;2023-04-24T03:09:39;1.55;;;0.90;;
45970;SDS011;31681;48.982;8.394;2023-04-24T03:12:05;1.70;;;0.85;;
45970;SDS011;31681;48.982;8.394;2023-04-24T03:14:30;2.83;;;0.98;;
45970;SDS011;31681;48.982;8.394;2023-04-24T03:16:56;0.77;;;0.77;;
45970;SDS011;31681;48.982;8.394;2023-04-24T03:19:21;1.13;;;0.80;;
45970;SDS011;31681;48.982;8.394;2023-04-24T03:22:10;0.88;;;0.88;;
45970;SDS011;31681;48.982;8.394;2023-04-24T03:24:36;2.60;;;1.00;;
45970;SDS011;31681;48.982;8.394;2023-04-24T03:27:02;1.23;;;1.13;;
45970;SDS011;31681;48.982;8.394;2023-04-24T03:29:50;2.38;;;1.00;;
45970;SDS011;31681;48.982;8.394;2023-04-24T03:32:27;2.30;;;0.90;;
45970;SDS011;31681;48.982;8.394;2023-04-24T03:34:52;1.33;;;1.10;;
45970;SDS011;31681;48.982;8.394;2023-04-24T03:37:19;2.65;;;1.23;;
45970;SDS011;31681;48.982;8.394;2023-04-24T03:39:53;1.95;;;1.48;;
45970;SDS011;31681;48.982;8.394;2023-04-24T03:42:22;1.98;;;1.10;;
45970;SDS011;31681;48.982;8.394;2023-04-24T03:44:51;1.65;;;1.20;;
45970;SDS011;31681;48.982;8.394;2023-04-24T03:47:19;1.63;;;1.08;;
45970;SDS011;31681;48.982;8.394;2023-04-24T03:49:46;3.55;;;1.20;;
45970;SDS011;31681;48.982;8.394;2023-04-24T03:52:11;3.67;;;1.13;;
45970;SDS011;31681;48.982;8.394;2023-04-24T03:54:36;2.10;;;1.40;;
45970;SDS011;31681;48.982;8.394;2023-04-24T03:57:04;3.65;;;1.67;;
45970;SDS011;31681;48.982;8.394;2023-04-24T03:59:31;1.30;;;1.20;;
45970;SDS011;31681;48.982;8.394;2023-04-24T04:02:07;3.47;;;1.27;;
45970;SDS011;31681;48.982;8.394;2023-04-24T04:04:32;2.55;;;1.30;;
45970;SDS011;31681;48.982;8.394;2023-04-24T04:06:58;4.28;;;1.30;;
45970;SDS011;31681;48.982;8.394;2023-04-24T04:09:26;2.80;;;1.35;;
45970;SDS011;31681;48.982;8.394;2023-04-24T04:11:52;3.03;;;1.23;;
45970;SDS011;31681;48.982;8.394;2023-04-24T04:14:17;1.67;;;1.45;;
45970;SDS011;31681;48.982;8.394;2023-04-24T04:16:46;2.67;;;1.30;;
45970;SDS011;31681;48.982;8.394;2023-04-24T04:19:11;2.28;;;1.40;;
45970;SDS011;31681;48.982;8.394;2023-04-24T04:21:37;2.00;;;1.30;;
45970;SDS011;31681;48.982;8.394;2023-04-24T04:24:21;1.55;;;1.38;;
45970;SDS011;31681;48.982;8.394;2023-04-24T04:26:47;1.50;;;1.30;;
45970;SDS011;31681;48.982;8.394;2023-04-24T04:29:28;2.95;;;1.25;;
45970;SDS011;31681;48.982;8.394;2023-04-24T04:31:54;1.77;;;1.40;;
45970;SDS011;31681;48.982;8.394;2023-04-24T04:34:20;1.52;;;1.40;;
45970;SDS011;31681;48.982;8.394;2023-04-24T04:36:46;2.13;;;1.40;;
45970;SDS011;31681;48.982;8.394;2023-04-24T04:39:32;1.20;;;1.10;;
45970;SDS011;31681;48.982;8.394;2023-04-24T04:42:07;1.88;;;1.50;;
45970;SDS011;31681;48.982;8.394;2023-04-24T04:44:38;1.88;;;1.20;;
45970;SDS011;31681;48.982;8.394;2023-04-24T04:47:05;4.18;;;1.30;;
45970;SDS011;31681;48.982;8.394;2023-04-24T04:49:38;2.05;;;1.80;;
45970;SDS011;31681;48.982;8.394;2023-04-24T04:52:08;2.25;;;1.40;;
45970;SDS011;31681;48.982;8.394;2023-04-24T04:54:33;1.70;;;1.60;;
45970;SDS011;31681;48.982;8.394;2023-04-24T04:57:00;1.95;;;1.55;;
45970;SDS011;31681;48.982;8.394;2023-04-24T04:59:26;4.25;;;1.70;;
45970;SDS011;31681;48.982;8.394;2023-04-24T05:01:58;1.55;;;1.45;;
45970;SDS011;31681;48.982;8.394;2023-04-24T05:04:24;3.40;;;1.80;;
45970;SDS011;31681;48.982;8.394;2023-04-24T05:06:49;4.03;;;1.70;;
45970;SDS011;31681;48.982;8.394;2023-04-24T05:09:16;2.03;;;1.67;;
45970;SDS011;31681;48.982;8.394;2023-04-24T05:11:48;2.40;;;2.03;;
45970;SDS011;31681;48.982;8.394;2023-04-24T05:14:13;3.47;;;1.55;;
45970;SDS011;31681;48.982;8.394;2023-04-24T05:16:39;4.22;;;2.13;;
45970;SDS011;31681;48.982;8.394;2023-04-24T05:19:06;3.47;;;2.10;;
45970;SDS011;31681;48.982;8.394;2023-04-24T05:21:39;2.10;;;1.90;;
45970;SDS011;31681;48.982;8.394;2023-04-24T05:24:13;5.03;;;2.42;;
45970;SDS011;31681;48.982;8.394;2023-04-24T05:26:59;1.98;;;1.83;;
45970;SDS011;31681;48.982;8.394;2023-04-24T05:29:31;3.13;;;1.80;;
45970;SDS011;31681;48.982;8.394;2023-04-24T05:31:58;3.00;;;2.10;;
45970;SDS011;31681;48.982;8.394;2023-04-24T05:34:24;4.57;;;1.98;;
45970;SDS011;31681;48.982;8.394;2023-04-24T05:36:53;2.20;;;1.90;;
45970;SDS011;31681;48.982;8.394;2023-04-24T05:39:19;2.28;;;2.05;;
45970;SDS011;31681;48.982;8.394;2023-04-24T05:41:44;5.68;;;5.18;;
45970;SDS011;31681;48.982;8.394;2023-04-24T05:44:10;2.20;;;2.00;;
45970;SDS011;31681;48.982;8.394;2023-04-24T05:46:35;2.20;;;1.73;;
45970;SDS011;31681;48.982;8.394;2023-04-24T05:49:00;1.92;;;1.80;;
45970;SDS011;31681;48.982;8.394;2023-04-24T05:51:26;2.40;;;2.00;;
45970;SDS011;31681;48.982;8.394;2023-04-24T05:53:51;2.20;;;2.00;;
45970;SDS011;31681;48.982;8.394;2023-04-24T05:56:17;2.67;;;2.00;;
45970;SDS011;31681;48.982;8.394;2023-04-24T05:58:43;1.92;;;1.75;;
45970;SDS011;31681;48.982;8.394;2023-04-24T06:01:09;2.03;;;1.40;;
45970;SDS011;31681;48.982;8.394;2023-04-24T06:03:35;2.22;;;1.80;;
45970;SDS011;31681;48.982;8.394;2023-04-24T06:06:02;3.88;;;1.80;;
45970;SDS011;31681;48.982;8.394;2023-04-24T06:08:28;1.48;;;1.38;;
45970;SDS011;31681;48.982;8.394;2023-04-24T06:10:53;1.73;;;1.58;;
45970;SDS011;31681;48.982;8.394;2023-04-24T06:13:20;1.67;;;1.58;;
45970;SDS011;31681;48.982;8.394;2023-04-24T06:16:05;2.10;;;1.90;;
45970;SDS011;31681;48.982;8.394;2023-04-24T06:18:34;2.45;;;1.80;;
45970;SDS011;31681;48.982;8.394;2023-04-24T06:20:59;2.90;;;1.55;;
45970;SDS011;31681;48.982;8.394;2023-04-24T06:23:25;3.78;;;1.80;;
45970;SDS011;31681;48.982;8.394;2023-04-24T06:25:50;3.45;;;1.77;;
45970;SDS011;31681;48.982;8.394;2023-04-24T06:28:16;4.55;;;2.00;;
45970;SDS011;31681;48.982;8.394;2023-04-24T06:30:41;2.50;;;2.30;;
45970;SDS011;31681;48.982;8.394;2023-04-24T06:33:07;1.98;;;1.77;;
45970;SDS011;31681;48.982;8.394;2023-04-24T06:35:32;2.63;;;1.98;;
45970;SDS011;31681;48.982;8.394;2023-04-24T06:37:57;2.15;;;1.95;;
45970;SDS011;31681;48.982;8.394;2023-04-24T06:40:23;2.60;;;1.85;;
45970;SDS011;31681;48.982;8.394;2023-04-24T06:42:48;2.70;;;2.10;;
45970;SDS011;31681;48.982;8.394;2023-04-24T06:45:13;3.58;;;2.08;;
45970;SDS011;31681;48.982;8.394;2023-04-24T06:47:39;3.92;;;2.50;;
45970;SDS011;31681;48.982;8.394;2023-04-24T06:50:04;4.15;;;2.30;;
45970;SDS011;31681;48.982;8.394;2023-04-24T06:52:30;3.10;;;2.10;;
45970;SDS011;31681;48.982;8.394;2023-04-24T06:55:02;3.20;;;1.92;;
45970;SDS011;31681;48.982;8.394;2023-04-24T06:57:28;1.98;;;1.77;;
45970;SDS011;31681;48.982;8.394;2023-04-24T06:59:53;2.45;;;1.90;;
45970;SDS011;31681;48.982;8.394;2023-04-24T07:02:18;2.10;;;1.80;;
45970;SDS011;31681;48.982;8.394;2023-04-24T07:04:44;3.55;;;1.60;;
45970;SDS011;31681;48.982;8.394;2023-04-24T07:07:11;2.42;;;2.15;;
45970;SDS011;31681;48.982;8.394;2023-04-24T07:09:38;3.13;;;1.90;;
45970;SDS011;31681;48.982;8.394;2023-04-24T07:12:06;2.47;;;1.42;;
45970;SDS011;31681;48.982;8.394;2023-04-24T07:14:32;1.63;;;1.52;;
45970;SDS011;31681;48.982;8.394;2023-04-24T07:16:57;2.22;;;1.98;;
45970;SDS011;31681;48.982;8.394;2023-04-24T07:19:23;2.08;;;1.67;;
45970;SDS011;31681;48.982;8.394;2023-04-24T07:21:48;3.20;;;1.77;;
45970;SDS011;31681;48.982;8.394;2023-04-24T07:24:13;3.95;;;2.00;;
45970;SDS011;31681;48.982;8.394;2023-04-24T07:26:39;2.10;;;1.85;;
45970;SDS011;31681;48.982;8.394;2023-04-24T07:29:05;2.45;;;1.83;;
45970;SDS011;31681;48.982;8.394;2023-04-24T07:31:30;2.97;;;1.90;;
45970;SDS011;31681;48.982;8.394;2023-04-24T07:33:56;2.50;;;1.40;;
45970;SDS011;31681;48.982;8.394;2023-04-24T07:36:23;1.58;;;1.48;;
45970;SDS011;31681;48.982;8.394;2023-04-24T07:38:49;2.85;;;1.38;;
45970;SDS011;31681;48.982;8.394;2023-04-24T07:41:14;2.05;;;1.50;;
45970;SDS011;31681;48.982;8.394;2023-04-24T07:43:40;5.15;;;1.63;;
45970;SDS011;31681;48.982;8.394;2023-04-24T07:46:06;1.77;;;1.60;;
45970;SDS011;31681;48.982;8.394;2023-04-24T07:48:31;1.40;;;1.30;;
45970;SDS011;31681;48.982;8.394;2023-04-24T07:50:56;1.27;;;1.15;;
45970;SDS011;31681;48.982;8.394;2023-04-24T07:53:22;1.85;;;1.27;;
45970;SDS011;31681;48.982;8.394;2023-04-24T07:55:47;3.17;;;1.23;;
45970;SDS011;31681;48.982;8.394;2023-04-24T07:58:12;5.50;;;1.23;;
45970;SDS011;31681;48.982;8.394;2023-04-24T08:00:38;2.75;;;1.27;;
45970;SDS011;31681;48.982;8.394;2023-04-24T08:03:03;2.92;;;1.85;;
45970;SDS011;31681;48.982;8.394;2023-04-24T08:05:29;1.95;;;1.50;;
45970;SDS011;31681;48.982;8.394;2023-04-24T08:07:54;2.58;;;1.23;;
45970;SDS011;31681;48.982;8.394;2023-04-24T08:10:23;3.00;;;1.50;;
45970;SDS011;31681;48.982;8.394;2023-04-24T08:12:48;2.85;;;1.67;;
45970;SDS011;31681;48.982;8.394;2023-04-24T08:15:13;2.22;;;1.90;;
45970;SDS011;31681;48.982;8.394;2023-04-24T08:17:39;2.72;;;1.48;;
45970;SDS011;31681;48.982;8.394;2023-04-24T08:20:05;2.47;;;1.90;;
45970;SDS011;31681;48.982;8.394;2023-04-24T08:22:35;3.42;;;1.55;;
45970;SDS011;31681;48.982;8.394;2023-04-24T08:25:00;1.92;;;1.30;;
45970;SDS011;31681;48.982;8.394;2023-04-24T08:27:26;3.22;;;1.45;;
45970;SDS011;31681;48.982;8.394;2023-04-24T08:29:56;2.80;;;1.83;;
45970;SDS011;31681;48.982;8.394;2023-04-24T08:32:22;2.00;;;1.70;;
45970;SDS011;31681;48.982;8.394;2023-04-24T08:34:47;3.80;;;1.75;;
45970;SDS011;31681;48.982;8.394;2023-04-24T08:37:12;2.15;;;1.67;;
45970;SDS011;31681;48.982;8.394;2023-04-24T08:39:38;2.40;;;1.70;;
45970;SDS011;31681;48.982;8.394;2023-04-24T08:42:04;3.58;;;1.70;;
45970;SDS011;31681;48.982;8.394;2023-04-24T08:44:33;2.88;;;2.25;;
45970;SDS011;31681;48.982;8.394;2023-04-24T08:46:58;2.25;;;2.03;;
45970;SDS011;31681;48.982;8.394;2023-04-24T08:49:24;2.58;;;2.10;;
45970;SDS011;31681;48.982;8.394;2023-04-24T08:51:50;2.33;;;2.00;;
45970;SDS011;31681;48.982;8.394;2023-04-24T08:54:17;2.53;;;1.90;;
45970;SDS011;31681;48.982;8.394;2023-04-24T08:56:43;4.07;;;2.28;;
45970;SDS011;31681;48.982;8.394;2023-04-24T08:59:09;1.95;;;1.58;;
45970;SDS011;31681;48.982;8.394;2023-04-24T09:01:35;3.10;;;1.85;;
45970;SDS011;31681;48.982;8.394;2023-04-24T09:04:02;1.45;;;1.27;;
45970;SDS011;31681;48.982;8.394;2023-04-24T09:06:28;1.60;;;1.42;;
45970;SDS011;31681;48.982;8.394;2023-04-24T09:08:55;2.67;;;1.48;;
45970;SDS011;31681;48.982;8.394;2023-04-24T09:11:21;4.22;;;1.80;;
45970;SDS011;31681;48.982;8.394;2023-04-24T09:13:49;3.50;;;1.50;;
45970;SDS011;31681;48.982;8.394;2023-04-24T09:16:15;1.85;;;1.40;;
45970;SDS011;31681;48.982;8.394;2023-04-24T09:18:40;3.78;;;1.40;;
45970;SDS011;31681;48.982;8.394;2023-04-24T09:21:09;1.50;;;1.40;;
45970;SDS011;31681;48.982;8.394;2023-04-24T09:23:34;5.00;;;1.80;;
45970;SDS011;31681;48.982;8.394;2023-04-24T09:26:00;2.17;;;1.65;;
45970;SDS011;31681;48.982;8.394;2023-04-24T09:28:30;2.97;;;1.73;;
45970;SDS011;31681;48.982;8.394;2023-04-24T09:31:05;1.50;;;1.40;;
45970;SDS011;31681;48.982;8.394;2023-04-24T09:33:31;2.15;;;1.95;;
45970;SDS011;31681;48.982;8.394;2023-04-24T09:35:57;2.88;;;2.15;;
45970;SDS011;31681;48.982;8.394;2023-04-24T09:38:34;4.13;;;2.20;;
45970;SDS011;31681;48.982;8.394;2023-04-24T09:41:00;3.63;;;2.70;;
45970;SDS011;31681;48.982;8.394;2023-04-24T09:43:28;4.85;;;2.00;;
45970;SDS011;31681;48.982;8.394;2023-04-24T09:45:55;3.38;;;2.60;;
45970;SDS011;31681;48.982;8.394;2023-04-24T09:48:20;5.57;;;2.50;;
45970;SDS011;31681;48.982;8.394;2023-04-24T09:50:54;3.80;;;2.50;;
45970;SDS011;31681;48.982;8.394;2023-04-24T09:53:23;3.67;;;2.78;;
45970;SDS011;31681;48.982;8.394;2023-04-24T09:55:49;3.28;;;2.33;;
45970;SDS011;31681;48.982;8.394;2023-04-24T09:58:15;3.58;;;2.17;;
45970;SDS011;31681;48.982;8.394;2023-04-24T10:00:40;2.53;;;1.90;;
45970;SDS011;31681;48.982;8.394;2023-04-24T10:03:06;2.67;;;2.00;;
45970;SDS011;31681;48.982;8.394;2023-04-24T10:05:35;3.35;;;2.17;;
45970;SDS011;31681;48.982;8.394;2023-04-24T10:08:05;4.50;;;2.08;;
45970;SDS011;31681;48.982;8.394;2023-04-24T10:10:30;3.83;;;1.80;;
45970;SDS011;31681;48.982;8.394;2023-04-24T10:12:56;2.90;;;1.90;;
45970;SDS011;31681;48.982;8.394;2023-04-24T10:15:21;2.50;;;1.60;;
45970;SDS011;31681;48.982;8.394;2023-04-24T10:17:48;1.35;;;1.25;;
45970;SDS011;31681;48.982;8.394;2023-04-24T10:20:18;2.95;;;1.70;;
45970;SDS011;31681;48.982;8.394;2023-04-24T10:22:43;2.53;;;2.00;;
45970;SDS011;31681;48.982;8.394;2023-04-24T10:25:11;6.60;;;2.30;;
45970;SDS011;31681;48.982;8.394;2023-04-24T10:27:36;10.23;;;2.85;;
45970;SDS011;31681;48.982;8.394;2023-04-24T10:30:03;3.83;;;1.83;;
45970;SDS011;31681;48.982;8.394;2023-04-24T10:32:28;2.35;;;2.15;;
45970;SDS011;31681;48.982;8.394;2023-04-24T10:34:54;3.53;;;2.58;;
45970;SDS011;31681;48.982;8.394;2023-04-24T10:37:21;2.85;;;2.20;;
45970;SDS011;31681;48.982;8.394;2023-04-24T10:39:49;2.45;;;1.85;;
45970;SDS011;31681;48.982;8.394;2023-04-24T10:42:16;4.55;;;2.58;;
45970;SDS011;31681;48.982;8.394;2023-04-24T10:44:41;2.47;;;2.25;;
45970;SDS011;31681;48.982;8.394;2023-04-24T10:47:12;3.30;;;1.85;;
45970;SDS011;31681;48.982;8.394;2023-04-24T10:49:37;2.50;;;2.30;;
45970;SDS011;31681;48.982;8.394;2023-04-24T10:52:03;2.22;;;2.03;;
45970;SDS011;31681;48.982;8.394;2023-04-24T10:54:35;2.83;;;2.13;;
45970;SDS011;31681;48.982;8.394;2023-04-24T10:59:52;2.53;;;1.70;;
45970;SDS011;31681;48.982;8.394;2023-04-24T11:02:38;6.57;;;2.08;;
45970;SDS011;31681;48.982;8.394;2023-04-24T11:05:04;2.67;;;2.08;;
45970;SDS011;31681;48.982;8.394;2023-04-24T11:07:29;4.25;;;2.08;;
45970;SDS011;31681;48.982;8.394;2023-04-24T11:09:58;3.38;;;2.25;;
45970;SDS011;31681;48.982;8.394;2023-04-24T11:12:23;3.20;;;2.30;;
45970;SDS011;31681;48.982;8.394;2023-04-24T11:17:30;4.43;;;2.70;;
45970;SDS011;31681;48.982;8.394;2023-04-24T11:20:29;5.30;;;2.65;;
45970;SDS011;31681;48.982;8.394;2023-04-24T11:22:47;4.88;;;2.42;;
45970;SDS011;31681;48.982;8.394;2023-04-24T11:25:13;5.50;;;2.85;;
45970;SDS011;31681;48.982;8.394;2023-04-24T11:27:44;4.07;;;3.22;;
45970;SDS011;31681;48.982;8.394;2023-04-24T11:30:11;5.90;;;3.55;;
45970;SDS011;31681;48.982;8.394;2023-04-24T11:32:37;4.75;;;3.55;;
45970;SDS011;31681;48.982;8.394;2023-04-24T11:37:33;5.50;;;4.03;;
45970;SDS011;31681;48.982;8.394;2023-04-24T11:39:58;6.03;;;4.22;;
45970;SDS011;31681;48.982;8.394;2023-04-24T11:42:24;8.35;;;4.82;;
45970;SDS011;31681;48.982;8.394;2023-04-24T11:44:54;6.53;;;4.22;;
45970;SDS011;31681;48.982;8.394;2023-04-24T11:47:42;6.75;;;4.05;;
45970;SDS011;31681;48.982;8.394;2023-04-24T11:50:07;7.55;;;4.55;;
45970;SDS011;31681;48.982;8.394;2023-04-24T11:52:33;6.90;;;4.95;;
45970;SDS011;31681;48.982;8.394;2023-04-24T11:55:01;6.57;;;4.57;;
45970;SDS011;31681;48.982;8.394;2023-04-24T11:57:27;6.35;;;4.53;;
45970;SDS011;31681;48.982;8.394;2023-04-24T11:59:58;6.10;;;4.97;;
45970;SDS011;31681;48.982;8.394;2023-04-24T12:02:24;6.05;;;4.35;;
45970;SDS011;31681;48.982;8.394;2023-04-24T12:04:50;6.65;;;4.80;;
45970;SDS011;31681;48.982;8.394;2023-04-24T12:07:15;4.75;;;3.60;;
45970;SDS011;31681;48.982;8.394;2023-04-24T12:09:41;4.72;;;3.50;;
45970;SDS011;31681;48.982;8.394;2023-04-24T12:12:07;6.20;;;3.67;;
45970;SDS011;31681;48.982;8.394;2023-04-24T12:14:33;6.03;;;3.85;;
45970;SDS011;31681;48.982;8.394;2023-04-24T12:16:58;4.53;;;3.08;;
45970;SDS011;31681;48.982;8.394;2023-04-24T12:19:23;4.70;;;3.17;;
45970;SDS011;31681;48.982;8.394;2023-04-24T12:22:02;3.97;;;2.90;;
45970;SDS011;31681;48.982;8.394;2023-04-24T12:24:28;7.40;;;3.88;;
45970;SDS011;31681;48.982;8.394;2023-04-24T12:26:53;5.93;;;3.72;;
45970;SDS011;31681;48.982;8.394;2023-04-24T12:29:20;5.68;;;3.50;;
45970;SDS011;31681;48.982;8.394;2023-04-24T12:31:46;8.40;;;3.30;;
45970;SDS011;31681;48.982;8.394;2023-04-24T12:34:21;3.63;;;2.92;;
45970;SDS011;31681;48.982;8.394;2023-04-24T12:36:47;5.28;;;3.53;;
45970;SDS011;31681;48.982;8.394;2023-04-24T12:39:18;5.10;;;3.47;;
45970;SDS011;31681;48.982;8.394;2023-04-24T12:41:54;3.78;;;3.20;;
45970;SDS011;31681;48.982;8.394;2023-04-24T12:44:28;3.85;;;3.15;;
45970;SDS011;31681;48.982;8.394;2023-04-24T12:46:53;6.47;;;3.13;;
45970;SDS011;31681;48.982;8.394;2023-04-24T12:49:18;3.83;;;3.30;;
45970;SDS011;31681;48.982;8.394;2023-04-24T12:51:44;4.07;;;3.08;;
45970;SDS011;31681;48.982;8.394;2023-04-24T12:54:09;5.20;;;2.85;;
45970;SDS011;31681;48.982;8.394;2023-04-24T12:56:35;4.82;;;3.45;;
45970;SDS011;31681;48.982;8.394;2023-04-24T12:59:04;5.13;;;3.28;;
45970;SDS011;31681;48.982;8.394;2023-04-24T13:01:30;3.70;;;3.20;;
45970;SDS011;31681;48.982;8.394;2023-04-24T13:03:55;3.40;;;3.10;;
45970;SDS011;31681;48.982;8.394;2023-04-24T13:06:21;4.57;;;3.60;;
45970;SDS011;31681;48.982;8.394;2023-04-24T13:08:46;5.18;;;3.70;;
45970;SDS011;31681;48.982;8.394;2023-04-24T13:11:12;4.43;;;3.47;;
45970;SDS011;31681;48.982;8.394;2023-04-24T13:13:38;8.00;;;3.67;;
45970;SDS011;31681;48.982;8.394;2023-04-24T13:16:03;4.18;;;3.17;;
45970;SDS011;31681;48.982;8.394;2023-04-24T13:18:29;5.28;;;3.33;;
45970;SDS011;31681;48.982;8.394;2023-04-24T13:20:54;5.55;;;3.08;;
45970;SDS011;31681;48.982;8.394;2023-04-24T13:23:19;4.05;;;2.63;;
45970;SDS011;31681;48.982;8.394;2023-04-24T13:25:45;3.97;;;2.50;;
45970;SDS011;31681;48.982;8.394;2023-04-24T13:28:10;3.83;;;3.13;;
45970;SDS011;31681;48.982;8.394;2023-04-24T13:30:36;4.63;;;3.20;;
45970;SDS011;31681;48.982;8.394;2023-04-24T13:33:02;3.08;;;2.50;;
45970;SDS011;31681;48.982;8.394;2023-04-24T13:35:28;5.25;;;2.78;;
45970;SDS011;31681;48.982;8.394;2023-04-24T13:37:53;4.95;;;2.83;;
45970;SDS011;31681;48.982;8.394;2023-04-24T13:40:18;3.70;;;2.80;;
45970;SDS011;31681;48.982;8.394;2023-04-24T13:42:44;3.50;;;2.67;;
45970;SDS011;31681;48.982;8.394;2023-04-24T13:45:09;5.72;;;2.95;;
45970;SDS011;31681;48.982;8.394;2023-04-24T13:47:35;3.85;;;2.90;;
45970;SDS011;31681;48.982;8.394;2023-04-24T13:50:01;6.18;;;2.97;;
45970;SDS011;31681;48.982;8.394;2023-04-24T13:52:26;4.75;;;2.63;;
45970;SDS011;31681;48.982;8.394;2023-04-24T13:54:51;3.40;;;2.72;;
45970;SDS011;31681;48.982;8.394;2023-04-24T13:57:17;3.97;;;2.45;;
45970;SDS011;31681;48.982;8.394;2023-04-24T13:59:43;3.55;;;2.47;;
45970;SDS011;31681;48.982;8.394;2023-04-24T14:02:08;6.70;;;2.42;;
45970;SDS011;31681;48.982;8.394;2023-04-24T14:04:33;5.95;;;2.83;;
45970;SDS011;31681;48.982;8.394;2023-04-24T14:06:59;3.53;;;2.42;;
45970;SDS011;31681;48.982;8.394;2023-04-24T14:09:24;2.20;;;2.00;;
45970;SDS011;31681;48.982;8.394;2023-04-24T14:11:49;3.45;;;2.60;;
45970;SDS011;31681;48.982;8.394;2023-04-24T14:14:16;2.67;;;2.13;;
45970;SDS011;31681;48.982;8.394;2023-04-24T14:16:41;3.45;;;2.30;;
45970;SDS011;31681;48.982;8.394;2023-04-24T14:19:07;5.25;;;2.42;;
45970;SDS011;31681;48.982;8.394;2023-04-24T14:21:32;3.42;;;2.70;;
45970;SDS011;31681;48.982;8.394;2023-04-24T14:23:57;3.08;;;2.63;;
45970;SDS011;31681;48.982;8.394;2023-04-24T14:26:23;5.03;;;3.05;;
45970;SDS011;31681;48.982;8.394;2023-04-24T14:28:49;3.88;;;2.65;;
45970;SDS011;31681;48.982;8.394;2023-04-24T14:31:15;3.67;;;2.75;;
45970;SDS011;31681;48.982;8.394;2023-04-24T14:33:40;3.70;;;2.38;;
45970;SDS011;31681;48.982;8.394;2023-04-24T14:36:05;2.13;;;1.92;;
45970;SDS011;31681;48.982;8.394;2023-04-24T14:38:32;3.33;;;2.00;;
45970;SDS011;31681;48.982;8.394;2023-04-24T14:40:58;2.63;;;1.80;;
45970;SDS011;31681;48.982;8.394;2023-04-24T14:43:23;3.47;;;1.95;;
45970;SDS011;31681;48.982;8.394;2023-04-24T14:45:49;2.28;;;1.80;;
45970;SDS011;31681;48.982;8.394;2023-04-24T14:48:14;2.33;;;2.13;;
45970;SDS011;31681;48.982;8.394;2023-04-24T14:50:41;2.25;;;1.88;;
45970;SDS011;31681;48.982;8.394;2023-04-24T14:53:06;3.10;;;1.80;;
45970;SDS011;31681;48.982;8.394;2023-04-24T14:55:32;3.17;;;1.95;;